Time;durP1;ratioP1;P1;durP2;ratioP2;P2;SDS_P1;SDS_P2;PMS_P1;PMS_P2;Temp;Humidity;BMP_temperature;BMP_pressure;BME280_temperature;BME280_humidity;BME280_pressure;Samples;Min_cycle;Max_cycle;Signal;HPM_P1;HPM_P2
2020/12/26 00:01:33;;;;;;;14.85;7.40;;;2.60;99.90;;;;;;5093896;28;20383;-82
2020/12/26 00:03:58;;;;;;;14.18;8.45;;;2.60;99.90;;;;;;5093762;28;20099;-82
2020/12/26 00:06:24;;;;;;;15.48;8.45;;;2.70;99.90;;;;;;5075574;28;20078;-82
2020/12/26 00:08:50;;;;;;;16.85;8.55;;;3.10;99.90;;;;;;5093725;28;20020;-82
2020/12/26 00:11:19;;;;;;;18.38;8.27;;;2.80;99.90;;;;;;5093656;28;20510;-82
2020/12/26 00:13:46;;;;;;;12.63;7.00;;;2.50;99.90;;;;;;5093690;28;20024;-82
2020/12/26 00:16:12;;;;;;;14.55;7.18;;;2.40;99.90;;;;;;5093569;28;20024;-82
2020/12/26 00:18:39;;;;;;;14.00;7.15;;;2.30;99.90;;;;;;5075706;28;20028;-82
2020/12/26 00:21:10;;;;;;;18.63;8.05;;;2.30;99.90;;;;;;5075516;28;20031;-81
2020/12/26 00:23:35;;;;;;;17.50;8.65;;;2.20;99.90;;;;;;5093860;28;20024;-82
2020/12/26 00:26:02;;;;;;;24.30;9.88;;;2.40;99.90;;;;;;5094757;28;20039;-82
2020/12/26 00:28:28;;;;;;;15.25;9.00;;;2.20;99.90;;;;;;5097537;28;20069;-82
2020/12/26 00:30:54;;;;;;;16.70;8.05;;;2.30;99.90;;;;;;5097446;28;20409;-82
2020/12/26 00:33:19;;;;;;;15.32;7.95;;;2.50;99.90;;;;;;5079368;28;20115;-82
2020/12/26 00:35:45;;;;;;;22.27;8.57;;;2.80;99.90;;;;;;5097327;28;20164;-81
2020/12/26 00:38:11;;;;;;;13.18;7.57;;;2.80;99.90;;;;;;5097303;28;20386;-82
2020/12/26 00:40:36;;;;;;;15.25;7.72;;;2.70;99.90;;;;;;5097861;28;20043;-82
2020/12/26 00:43:02;;;;;;;16.92;8.00;;;2.80;99.90;;;;;;5079070;28;20469;-82
2020/12/26 00:45:28;;;;;;;17.38;9.30;;;2.80;99.90;;;;;;5097271;28;20063;-82
2020/12/26 00:47:53;;;;;;;21.40;11.82;;;2.50;99.90;;;;;;5079135;28;20497;-82
2020/12/26 00:50:19;;;;;;;16.95;9.57;;;2.40;99.90;;;;;;5097115;28;20090;-82
2020/12/26 00:52:45;;;;;;;15.30;8.68;;;2.50;99.90;;;;;;5096997;28;20031;-82
2020/12/26 00:55:10;;;;;;;16.30;8.77;;;2.50;99.90;;;;;;5078670;28;20073;-82
2020/12/26 00:57:36;;;;;;;20.60;9.60;;;2.50;99.90;;;;;;5078773;28;20024;-82
2020/12/26 01:00:04;;;;;;;16.45;8.60;;;2.40;99.90;;;;;;5096887;28;20099;-81
2020/12/26 01:02:30;;;;;;;15.88;8.52;;;2.30;99.90;;;;;;5078752;28;20555;-82
2020/12/26 01:04:55;;;;;;;18.52;8.73;;;2.40;99.90;;;;;;5096923;28;20056;-81
2020/12/26 01:07:21;;;;;;;12.75;7.63;;;2.60;99.90;;;;;;5096918;28;20107;-82
2020/12/26 01:09:47;;;;;;;15.40;8.60;;;2.70;99.90;;;;;;5074951;28;20060;-82
2020/12/26 01:12:13;;;;;;;15.48;8.40;;;2.80;99.90;;;;;;5075798;28;20107;-82
2020/12/26 01:14:42;;;;;;;13.98;8.13;;;2.80;99.90;;;;;;5076362;28;20029;-82
2020/12/26 01:17:08;;;;;;;16.35;8.15;;;2.80;99.90;;;;;;5076347;28;20024;-82
2020/12/26 01:19:34;;;;;;;33.88;13.75;;;2.70;99.90;;;;;;5075094;28;20024;-82
2020/12/26 01:21:59;;;;;;;15.45;8.40;;;2.70;99.90;;;;;;5076274;28;20027;-82
2020/12/26 01:24:25;;;;;;;12.68;7.88;;;2.90;99.90;;;;;;5074930;28;20108;-81
2020/12/26 01:26:51;;;;;;;17.15;9.07;;;2.70;99.90;;;;;;5076219;28;20033;-81
2020/12/26 01:29:18;;;;;;;15.18;7.68;;;2.90;99.90;;;;;;5076238;28;20028;-82
2020/12/26 01:31:49;;;;;;;16.45;9.35;;;3.00;99.90;;;;;;5076135;28;20103;-82
2020/12/26 01:34:15;;;;;;;15.35;9.68;;;3.00;99.90;;;;;;5076221;28;20026;-81
2020/12/26 01:36:41;;;;;;;16.15;8.93;;;2.70;99.90;;;;;;5075313;28;20029;-82
2020/12/26 01:39:06;;;;;;;15.70;8.75;;;2.90;99.90;;;;;;5073989;28;20032;-82
2020/12/26 01:41:32;;;;;;;16.67;8.35;;;2.80;99.90;;;;;;5076073;28;20074;-82
2020/12/26 01:44:00;;;;;;;18.75;9.07;;;2.90;99.90;;;;;;5075829;28;20021;-82
2020/12/26 01:46:31;;;;;;;14.23;8.07;;;2.70;99.90;;;;;;5075825;28;20357;-81
2020/12/26 01:48:58;;;;;;;18.90;8.93;;;2.80;99.90;;;;;;5074581;28;20154;-82
2020/12/26 01:51:29;;;;;;;21.48;8.95;;;2.80;99.90;;;;;;5075669;28;20365;-82
2020/12/26 01:53:55;;;;;;;19.48;8.48;;;2.60;99.90;;;;;;5074432;28;20115;-81
2020/12/26 01:56:21;;;;;;;17.52;9.10;;;2.40;99.90;;;;;;5074358;28;20178;-81
2020/12/26 01:58:47;;;;;;;15.57;8.73;;;2.40;99.90;;;;;;5075526;28;20146;-81
2020/12/26 02:01:13;;;;;;;19.83;9.48;;;2.30;99.90;;;;;;5075873;28;20060;-82
2020/12/26 02:03:40;;;;;;;15.05;8.80;;;2.10;99.90;;;;;;5074269;28;20033;-82
2020/12/26 02:06:09;;;;;;;18.70;9.10;;;1.90;99.90;;;;;;5074174;28;20025;-82
2020/12/26 02:08:35;;;;;;;12.77;7.75;;;1.90;99.90;;;;;;5075309;28;20063;-82
2020/12/26 02:11:05;;;;;;;16.48;8.18;;;2.20;99.90;;;;;;5089840;28;20440;-81
2020/12/26 02:13:32;;;;;;;12.95;8.43;;;2.60;99.90;;;;;;5095550;28;20031;-81
2020/12/26 02:16:04;;;;;;;14.15;8.63;;;2.70;99.90;;;;;;5095725;28;20111;-81
2020/12/26 02:18:31;;;;;;;16.02;8.43;;;2.60;99.90;;;;;;5095422;28;20016;-82
2020/12/26 02:20:57;;;;;;;15.73;9.13;;;2.40;99.90;;;;;;5095667;28;20020;-82
2020/12/26 02:23:25;;;;;;;15.63;8.77;;;2.50;99.90;;;;;;5095299;28;20070;-81
2020/12/26 02:25:51;;;;;;;20.08;8.98;;;2.50;99.90;;;;;;5077398;28;20052;-82
2020/12/26 02:28:16;;;;;;;18.00;9.93;;;2.70;99.90;;;;;;5095518;28;20067;-81
2020/12/26 02:30:42;;;;;;;16.25;8.13;;;2.50;99.90;;;;;;5095336;28;20082;-81
2020/12/26 02:33:08;;;;;;;17.25;9.32;;;2.30;99.90;;;;;;5076944;28;20051;-80
2020/12/26 02:35:33;;;;;;;22.25;10.57;;;2.30;99.90;;;;;;5076691;28;20036;-82
2020/12/26 02:37:59;;;;;;;18.48;9.48;;;2.30;99.90;;;;;;5095277;28;20016;-82
2020/12/26 02:40:25;;;;;;;18.38;10.23;;;2.30;99.90;;;;;;5077081;28;20024;-82
2020/12/26 02:42:50;;;;;;;22.35;10.57;;;2.10;99.90;;;;;;5094925;28;20024;-82
2020/12/26 02:45:16;;;;;;;21.70;9.95;;;2.10;99.90;;;;;;5094926;28;20024;-81
2020/12/26 02:47:44;;;;;;;14.80;8.93;;;2.00;99.90;;;;;;5095158;28;20012;-81
2020/12/26 02:50:10;;;;;;;20.27;9.23;;;2.00;99.90;;;;;;5076110;28;20039;-82
2020/12/26 02:52:35;;;;;;;21.20;9.70;;;2.30;99.90;;;;;;5094722;28;20463;-82
2020/12/26 02:55:01;;;;;;;21.77;9.23;;;2.20;99.90;;;;;;5094909;28;20024;-82
2020/12/26 02:57:26;;;;;;;17.33;9.73;;;2.10;99.90;;;;;;5094766;28;20028;-82
2020/12/26 02:59:52;;;;;;;21.33;9.52;;;2.20;99.90;;;;;;5094549;28;20093;-81
2020/12/26 03:02:18;;;;;;;16.42;9.23;;;2.20;99.90;;;;;;5094575;28;20356;-81
2020/12/26 03:04:43;;;;;;;18.20;9.32;;;2.10;99.90;;;;;;5094533;28;20052;-82
2020/12/26 03:07:09;;;;;;;15.25;9.10;;;2.00;99.90;;;;;;5076338;28;20086;-82
2020/12/26 03:09:35;;;;;;;15.45;8.88;;;2.00;99.90;;;;;;5076108;28;20387;-82
2020/12/26 03:12:00;;;;;;;20.08;10.55;;;2.10;99.90;;;;;;5076394;28;20085;-82
2020/12/26 03:14:26;;;;;;;22.98;9.77;;;2.40;99.90;;;;;;5076203;28;20424;-81
2020/12/26 03:16:51;;;;;;;15.23;8.75;;;2.40;99.90;;;;;;5094488;28;20340;-81
2020/12/26 03:19:17;;;;;;;18.83;8.50;;;2.40;99.90;;;;;;5076186;28;20024;-82
2020/12/26 03:21:43;;;;;;;16.42;8.60;;;2.50;99.90;;;;;;5076260;28;20027;-82
2020/12/26 03:24:08;;;;;;;18.85;8.48;;;2.80;99.90;;;;;;5094200;28;20020;-82
2020/12/26 03:26:34;;;;;;;20.45;9.18;;;2.80;99.90;;;;;;5094370;28;20103;-82
2020/12/26 03:29:00;;;;;;;17.33;9.65;;;2.90;99.90;;;;;;5094167;28;20024;-81
2020/12/26 03:31:25;;;;;;;17.38;8.70;;;2.90;99.90;;;;;;5094101;28;20036;-81
2020/12/26 03:33:51;;;;;;;22.52;9.32;;;2.90;99.90;;;;;;5094121;28;20028;-81
2020/12/26 03:36:17;;;;;;;17.95;9.48;;;2.60;99.90;;;;;;5075898;28;20115;-82
2020/12/26 03:38:42;;;;;;;16.50;9.13;;;2.80;99.90;;;;;;5076100;28;20467;-82
2020/12/26 03:41:08;;;;;;;17.17;9.82;;;2.60;99.90;;;;;;5094045;28;20059;-81
2020/12/26 03:43:34;;;;;;;18.83;9.32;;;2.70;99.90;;;;;;5093999;28;20495;-81
2020/12/26 03:45:59;;;;;;;25.75;13.18;;;2.60;99.90;;;;;;5075773;28;20380;-82
2020/12/26 03:48:25;;;;;;;15.75;9.80;;;2.40;99.90;;;;;;5075819;28;20451;-82
2020/12/26 03:50:51;;;;;;;16.10;9.75;;;2.40;99.90;;;;;;5075570;28;20028;-82
2020/12/26 03:53:16;;;;;;;16.92;9.02;;;2.60;99.90;;;;;;5094181;28;20028;-82
2020/12/26 03:55:42;;;;;;;15.82;9.30;;;2.80;99.90;;;;;;5093494;28;20383;-82
2020/12/26 03:58:07;;;;;;;17.27;10.02;;;2.80;99.90;;;;;;5093645;28;20352;-82
2020/12/26 04:00:33;;;;;;;19.27;8.98;;;2.70;99.90;;;;;;5092785;28;20028;-82
2020/12/26 04:02:59;;;;;;;17.38;9.45;;;2.50;99.90;;;;;;5097969;28;20073;-82
2020/12/26 04:05:24;;;;;;;14.52;9.00;;;2.50;99.90;;;;;;5079565;28;20024;-82
2020/12/26 04:07:51;;;;;;;17.10;9.30;;;2.40;99.90;;;;;;5097649;28;20020;-82
2020/12/26 04:10:16;;;;;;;18.27;9.75;;;2.30;99.90;;;;;;5097430;28;20195;-82
2020/12/26 04:12:42;;;;;;;17.25;9.10;;;2.00;99.90;;;;;;5097515;28;20016;-82
2020/12/26 04:15:08;;;;;;;14.25;9.05;;;2.00;99.90;;;;;;5097763;28;20032;-82
2020/12/26 04:17:34;;;;;;;15.18;8.93;;;2.40;99.90;;;;;;5079222;28;20024;-82
2020/12/26 04:19:59;;;;;;;14.15;9.25;;;2.50;99.90;;;;;;5097439;28;20051;-82
2020/12/26 04:22:25;;;;;;;15.38;9.30;;;2.50;99.90;;;;;;5097367;28;20020;-82
2020/12/26 04:24:50;;;;;;;14.23;8.68;;;2.40;99.90;;;;;;5097394;28;20024;-82
2020/12/26 04:27:16;;;;;;;19.05;9.55;;;2.50;99.90;;;;;;5079136;28;20035;-82
2020/12/26 04:29:42;;;;;;;17.83;9.52;;;2.60;99.90;;;;;;5079165;28;20063;-82
2020/12/26 04:32:08;;;;;;;18.20;9.90;;;2.40;99.90;;;;;;5078994;28;20031;-82
2020/12/26 04:34:34;;;;;;;14.32;8.60;;;2.40;99.90;;;;;;5097097;28;20082;-82
2020/12/26 04:36:59;;;;;;;16.52;9.50;;;2.20;99.90;;;;;;5097289;28;20378;-82
2020/12/26 04:39:25;;;;;;;17.77;8.90;;;2.50;99.90;;;;;;5097252;28;20016;-82
2020/12/26 04:41:51;;;;;;;16.77;9.07;;;2.30;99.90;;;;;;5096989;28;20142;-82
2020/12/26 04:44:17;;;;;;;16.73;9.18;;;2.30;99.90;;;;;;5096988;28;20459;-82
2020/12/26 04:46:43;;;;;;;15.20;9.00;;;2.30;99.90;;;;;;5096905;28;20081;-82
2020/12/26 04:49:11;;;;;;;16.13;9.10;;;2.40;99.90;;;;;;5097153;28;20028;-82
2020/12/26 04:51:39;;;;;;;16.45;9.68;;;2.30;99.90;;;;;;5096812;28;20081;-82
2020/12/26 04:54:22;;;;;;;13.00;8.80;;;2.10;99.90;;;;;;5078597;28;20059;-82
2020/12/26 04:56:52;;;;;;;20.03;9.23;;;2.20;99.90;;;;;;5097046;28;20529;-82
2020/12/26 04:59:18;;;;;;;17.80;9.23;;;2.10;99.90;;;;;;5078470;28;20056;-82
2020/12/26 05:01:46;;;;;;;14.65;9.00;;;2.00;99.90;;;;;;5096631;28;20375;-82
2020/12/26 05:04:12;;;;;;;16.15;8.88;;;2.10;99.90;;;;;;5096556;28;20016;-82
2020/12/26 05:06:48;;;;;;;13.98;8.68;;;2.40;99.90;;;;;;5078321;28;20030;-82
2020/12/26 05:09:15;;;;;;;15.18;8.43;;;2.60;99.90;;;;;;5078350;28;20024;-82
2020/12/26 05:11:51;;;;;;;14.55;8.90;;;2.30;99.90;;;;;;5095920;28;20093;-82
2020/12/26 05:14:17;;;;;;;16.95;9.45;;;2.20;99.90;;;;;;5096432;28;20494;-82
2020/12/26 05:16:43;;;;;;;16.33;8.15;;;2.40;99.90;;;;;;5096276;28;20494;-82
2020/12/26 05:19:09;;;;;;;16.90;8.57;;;2.20;99.90;;;;;;5096287;28;20020;-82
2020/12/26 05:21:35;;;;;;;16.73;8.45;;;2.20;99.90;;;;;;5096282;28;20031;-82
2020/12/26 05:24:09;;;;;;;13.02;8.50;;;2.10;99.90;;;;;;5078067;28;20024;-82
2020/12/26 05:26:42;;;;;;;15.90;9.07;;;2.50;99.90;;;;;;5078130;28;20031;-82
2020/12/26 05:29:09;;;;;;;13.57;8.45;;;2.20;99.90;;;;;;5096173;28;20106;-82
2020/12/26 05:31:55;;;;;;;20.88;10.05;;;2.20;99.90;;;;;;5077929;28;20032;-82
2020/12/26 05:34:22;;;;;;;15.80;8.52;;;2.40;99.90;;;;;;5077840;28;20115;-82
2020/12/26 05:36:48;;;;;;;16.77;9.07;;;2.50;99.90;;;;;;5077747;28;20114;-83
2020/12/26 05:39:14;;;;;;;14.82;9.23;;;2.60;99.90;;;;;;5095947;28;20020;-82
2020/12/26 05:41:43;;;;;;;15.25;7.90;;;2.40;99.90;;;;;;5077774;28;20035;-82
2020/12/26 05:44:10;;;;;;;16.10;8.32;;;2.50;99.90;;;;;;5077735;28;20502;-82
2020/12/26 05:46:35;;;;;;;13.73;7.90;;;2.60;99.90;;;;;;5077583;28;20130;-83
2020/12/26 05:49:21;;;;;;;15.23;8.63;;;2.60;99.90;;;;;;5077554;28;20506;-83
2020/12/26 05:51:51;;;;;;;16.92;8.50;;;2.70;99.90;;;;;;5095688;28;20031;-82
2020/12/26 05:54:18;;;;;;;12.68;8.35;;;2.50;99.90;;;;;;5095649;28;20016;-83
2020/12/26 05:56:44;;;;;;;17.13;9.23;;;2.70;99.90;;;;;;5077373;28;20448;-83
2020/12/26 05:59:25;;;;;;;15.52;8.80;;;2.50;99.90;;;;;;5095538;28;20063;-83
2020/12/26 06:01:54;;;;;;;13.57;8.10;;;2.40;99.90;;;;;;5077287;28;20024;-83
2020/12/26 06:04:20;;;;;;;17.00;8.70;;;2.30;99.90;;;;;;5077268;28;20024;-82
2020/12/26 06:06:52;;;;;;;12.93;8.32;;;2.20;99.90;;;;;;5095274;28;20107;-82
2020/12/26 06:09:20;;;;;;;12.60;8.27;;;2.40;99.90;;;;;;5076997;28;20024;-82
2020/12/26 06:11:46;;;;;;;16.13;9.25;;;2.50;99.90;;;;;;5077161;28;20051;-82
2020/12/26 06:14:18;;;;;;;16.38;9.25;;;2.50;99.90;;;;;;5095247;28;20047;-82
2020/12/26 06:16:57;;;;;;;14.52;8.75;;;2.30;99.90;;;;;;5095187;28;20020;-82
2020/12/26 06:19:28;;;;;;;15.40;9.10;;;2.20;99.90;;;;;;5077027;28;20016;-82
2020/12/26 06:21:55;;;;;;;16.08;8.63;;;2.10;99.90;;;;;;5095416;28;20425;-82
2020/12/26 06:24:21;;;;;;;12.20;7.95;;;2.00;99.90;;;;;;5094303;28;20028;-83
2020/12/26 06:26:53;;;;;;;19.73;9.05;;;2.10;99.90;;;;;;5095002;28;20036;-82
2020/12/26 06:29:23;;;;;;;13.55;9.20;;;1.80;99.90;;;;;;5076832;28;20028;-82
2020/12/26 06:31:51;;;;;;;20.95;9.13;;;1.60;99.90;;;;;;5094916;28;20049;-82
2020/12/26 06:34:20;;;;;;;17.92;8.32;;;1.40;99.90;;;;;;5076692;28;20232;-83
2020/12/26 06:36:46;;;;;;;13.23;7.93;;;1.30;99.90;;;;;;5095245;28;20032;-83
2020/12/26 06:39:32;;;;;;;16.90;8.43;;;1.50;99.90;;;;;;5095024;28;20425;-83
2020/12/26 06:42:16;;;;;;;18.33;8.13;;;1.30;99.90;;;;;;5076597;28;20028;-83
2020/12/26 06:44:43;;;;;;;19.98;8.38;;;1.30;99.90;;;;;;5076565;28;20023;-83
2020/12/26 06:47:29;;;;;;;18.88;8.00;;;1.50;99.90;;;;;;5094856;28;20066;-82
2020/12/26 06:50:15;;;;;;;14.60;7.45;;;1.60;99.90;;;;;;5076195;28;20028;-82
2020/12/26 06:52:40;;;;;;;12.52;6.90;;;1.90;99.90;;;;;;5076449;28;20028;-82
2020/12/26 06:55:06;;;;;;;15.15;7.82;;;2.30;99.90;;;;;;5094757;28;20035;-82
2020/12/26 06:57:38;;;;;;;15.65;8.18;;;2.30;99.90;;;;;;5094600;28;20032;-82
2020/12/26 07:00:28;;;;;;;13.43;8.15;;;2.00;99.90;;;;;;5076204;28;20028;-82
2020/12/26 07:03:15;;;;;;;13.73;7.57;;;2.00;99.90;;;;;;5094395;28;20016;-82
2020/12/26 07:05:41;;;;;;;16.38;7.95;;;2.00;99.90;;;;;;5094271;28;20089;-82
2020/12/26 07:08:06;;;;;;;16.35;7.72;;;2.20;99.90;;;;;;5094150;28;20028;-83
2020/12/26 07:10:34;;;;;;;11.85;7.53;;;2.20;99.90;;;;;;5093937;28;20123;-82
2020/12/26 07:12:59;;;;;;;15.15;8.15;;;2.40;99.90;;;;;;5076050;28;20429;-83
2020/12/26 07:15:32;;;;;;;16.45;8.02;;;2.30;99.90;;;;;;5075863;28;20078;-83
2020/12/26 07:18:21;;;;;;;12.13;7.18;;;2.30;99.90;;;;;;5094053;28;20012;-82
2020/12/26 07:20:50;;;;;;;18.05;8.15;;;2.30;99.90;;;;;;5082098;28;20048;-82
2020/12/26 07:23:16;;;;;;;17.13;7.85;;;2.30;99.90;;;;;;5094037;28;20024;-83
2020/12/26 07:25:42;;;;;;;16.50;8.00;;;2.30;99.90;;;;;;5075803;28;20028;-82
2020/12/26 07:28:09;;;;;;;13.20;7.63;;;2.30;99.90;;;;;;5075793;28;20482;-83
2020/12/26 07:30:36;;;;;;;16.05;8.20;;;2.20;99.90;;;;;;5075726;28;20024;-83
2020/12/26 07:33:02;;;;;;;13.35;8.50;;;2.20;99.90;;;;;;5094132;28;20022;-82
2020/12/26 07:35:33;;;;;;;18.83;9.02;;;2.40;99.90;;;;;;5075585;28;20020;-82
2020/12/26 07:38:00;;;;;;;13.43;8.38;;;2.40;99.90;;;;;;5075672;28;20026;-83
2020/12/26 07:40:34;;;;;;;17.30;8.32;;;2.20;99.90;;;;;;5075646;28;20069;-82
2020/12/26 07:43:04;;;;;;;;;;;2.40;99.90;;;;;;5094156;28;20024;-82
2020/12/26 07:45:31;;;;;;;15.15;7.55;;;2.40;99.90;;;;;;5075625;28;19904;-82
2020/12/26 07:47:58;;;;;;;16.60;7.90;;;2.50;99.90;;;;;;5093688;28;20051;-83
2020/12/26 07:50:27;;;;;;;14.57;8.48;;;2.50;99.90;;;;;;5093624;28;20048;-82
2020/12/26 07:52:55;;;;;;;12.48;8.35;;;2.40;99.90;;;;;;5075474;28;20027;-82
2020/12/26 07:55:22;;;;;;;12.82;7.85;;;2.40;99.90;;;;;;5075697;28;20020;-82
2020/12/26 07:57:48;;;;;;;26.52;12.13;;;2.20;99.90;;;;;;5075444;28;20479;-83
2020/12/26 08:00:22;;;;;;;14.82;7.82;;;2.20;99.90;;;;;;5093565;28;20091;-83
2020/12/26 08:02:49;;;;;;;12.55;7.47;;;2.40;99.90;;;;;;5075432;28;20486;-83
2020/12/26 08:05:28;;;;;;;13.18;7.07;;;2.60;99.90;;;;;;5075461;28;20031;-83
2020/12/26 08:07:54;;;;;;;15.77;7.70;;;2.60;99.90;;;;;;5075430;28;20032;-83
2020/12/26 08:10:21;;;;;;;15.98;7.85;;;2.70;99.90;;;;;;5093422;28;20491;-82
2020/12/26 08:12:55;;;;;;;13.32;8.25;;;3.00;99.90;;;;;;5093695;28;20017;-83
2020/12/26 08:15:22;;;;;;;13.90;7.70;;;3.20;99.90;;;;;;5075257;28;20024;-82
2020/12/26 08:17:53;;;;;;;10.77;6.85;;;3.10;99.90;;;;;;5075317;28;20052;-82
2020/12/26 08:20:21;;;;;;;12.98;7.05;;;3.40;99.90;;;;;;5075260;28;20540;-82
2020/12/26 08:22:46;;;;;;;11.20;7.43;;;3.70;99.90;;;;;;5075247;28;20459;-82
2020/12/26 08:25:14;;;;;;;12.27;7.13;;;3.50;99.90;;;;;;5093360;28;20027;-81
2020/12/26 08:27:41;;;;;;;13.02;6.97;;;3.40;99.90;;;;;;5093221;28;20020;-82
2020/12/26 08:30:13;;;;;;;14.65;7.80;;;3.50;99.90;;;;;;5075157;28;20030;-82
2020/12/26 08:33:08;;;;;;;11.23;7.65;;;3.60;99.90;;;;;;5093277;28;20028;-82
2020/12/26 08:35:36;;;;;;;16.40;7.97;;;3.50;99.90;;;;;;5075126;28;20024;-82
2020/12/26 08:38:11;;;;;;;14.60;8.30;;;3.60;99.90;;;;;;5075075;28;20122;-81
2020/12/26 08:40:39;;;;;;;15.63;7.93;;;3.30;99.90;;;;;;5093549;28;20016;-81
2020/12/26 08:43:12;;;;;;;19.02;8.35;;;3.30;99.90;;;;;;5075088;28;20023;-82
2020/12/26 08:45:38;;;;;;;16.75;8.38;;;3.30;99.90;;;;;;5093401;28;20421;-81
2020/12/26 08:48:18;;;;;;;15.40;7.82;;;3.40;99.90;;;;;;5077842;28;20020;-81
2020/12/26 08:50:53;;;;;;;18.30;7.85;;;3.60;99.90;;;;;;5096858;28;20020;-81
2020/12/26 08:53:22;;;;;;;16.23;7.72;;;3.60;99.90;;;;;;5062157;28;20024;-81
2020/12/26 08:55:50;;;;;;;13.70;7.70;;;3.50;99.90;;;;;;5096704;28;20039;-81
2020/12/26 08:58:26;;;;;;;15.48;8.00;;;3.20;99.90;;;;;;5078588;28;20118;-82
2020/12/26 09:00:53;;;;;;;11.75;7.20;;;3.10;99.90;;;;;;5096621;28;20070;-82
2020/12/26 09:03:30;;;;;;;11.88;7.20;;;3.20;99.90;;;;;;5078634;28;20025;-81
2020/12/26 09:05:58;;;;;;;14.57;8.20;;;3.20;99.90;;;;;;5078319;28;20391;-81
2020/12/26 09:08:41;;;;;;;12.95;7.57;;;3.20;99.90;;;;;;5096471;28;20383;-80
2020/12/26 09:11:10;;;;;;;14.00;8.17;;;2.90;99.90;;;;;;5096361;28;20087;-80
2020/12/26 09:13:40;;;;;;;13.05;7.53;;;2.70;99.90;;;;;;5078266;28;20263;-80
2020/12/26 09:16:10;;;;;;;14.80;8.23;;;2.60;99.90;;;;;;5096267;28;20131;-81
2020/12/26 09:18:42;;;;;;;14.73;8.13;;;2.60;99.90;;;;;;5096429;28;20020;-81
2020/12/26 09:21:19;;;;;;;15.52;7.88;;;2.80;99.90;;;;;;5096918;28;20086;-81
2020/12/26 09:23:45;;;;;;;15.85;9.85;;;2.90;99.90;;;;;;5078130;28;20024;-81
2020/12/26 09:26:36;;;;;;;22.83;11.38;;;2.80;99.90;;;;;;5078000;28;20028;-81
2020/12/26 09:29:03;;;;;;;21.50;11.68;;;2.60;99.90;;;;;;5094920;28;20177;-81
2020/12/26 09:31:36;;;;;;;16.52;9.50;;;2.40;99.90;;;;;;5095919;28;20078;-81
2020/12/26 09:34:14;;;;;;;18.13;8.75;;;2.50;99.90;;;;;;5095997;28;20056;-81
2020/12/26 09:36:40;;;;;;;13.00;8.52;;;2.80;99.90;;;;;;5096197;28;20475;-81
2020/12/26 09:39:06;;;;;;;13.50;7.35;;;2.90;99.90;;;;;;5077763;28;20024;-81
2020/12/26 09:41:42;;;;;;;15.25;8.50;;;2.80;99.90;;;;;;5096130;28;20034;-81
2020/12/26 09:44:08;;;;;;;11.23;7.80;;;3.00;99.90;;;;;;5096044;28;20016;-81
2020/12/26 09:46:34;;;;;;;16.13;8.05;;;3.20;99.90;;;;;;5077628;28;20070;-81
2020/12/26 09:49:00;;;;;;;18.30;10.82;;;3.30;99.90;;;;;;5077526;28;20387;-81
2020/12/26 09:51:25;;;;;;;13.00;7.88;;;3.00;99.90;;;;;;5095707;28;20414;-81
2020/12/26 09:53:51;;;;;;;15.63;7.43;;;3.20;99.90;;;;;;5077513;28;20024;-81
2020/12/26 09:56:17;;;;;;;18.35;8.00;;;3.40;99.90;;;;;;5077363;28;20032;-81
2020/12/26 09:58:44;;;;;;;15.48;8.20;;;3.20;99.90;;;;;;5094345;28;20025;-81
2020/12/26 10:01:18;;;;;;;12.52;7.55;;;3.40;99.90;;;;;;5077332;28;20111;-81
2020/12/26 10:03:44;;;;;;;17.65;7.63;;;3.20;99.90;;;;;;5095727;28;20028;-81
2020/12/26 10:06:15;;;;;;;12.40;6.97;;;3.50;99.90;;;;;;5095155;28;20028;-80
2020/12/26 10:08:42;;;;;;;14.18;8.57;;;3.70;99.90;;;;;;5076904;28;20024;-81
2020/12/26 10:11:09;;;;;;;12.57;6.82;;;3.90;99.90;;;;;;5094722;28;20048;-81
2020/12/26 10:13:35;;;;;;;10.75;6.45;;;4.00;99.90;;;;;;5095164;28;20055;-80
2020/12/26 10:16:01;;;;;;;13.85;7.43;;;4.20;99.90;;;;;;5076808;28;20391;-80
2020/12/26 10:18:27;;;;;;;11.10;6.30;;;4.20;99.90;;;;;;5076945;28;20031;-80
2020/12/26 10:20:52;;;;;;;9.95;6.35;;;4.10;99.90;;;;;;5076877;28;20024;-81
2020/12/26 10:23:18;;;;;;;10.93;6.72;;;4.00;99.90;;;;;;5076926;28;20020;-80
2020/12/26 10:25:44;;;;;;;12.40;7.10;;;4.00;99.90;;;;;;5095298;28;20073;-80
2020/12/26 10:28:10;;;;;;;10.50;6.38;;;3.80;99.90;;;;;;5094813;28;20032;-80
2020/12/26 10:30:35;;;;;;;10.23;6.75;;;3.80;99.90;;;;;;5095076;28;20085;-80
2020/12/26 10:33:01;;;;;;;11.75;7.60;;;3.80;99.90;;;;;;5076836;28;20042;-80
2020/12/26 10:35:27;;;;;;;16.30;8.38;;;3.70;99.90;;;;;;5076805;28;20035;-80
2020/12/26 10:37:52;;;;;;;15.23;7.60;;;3.70;99.90;;;;;;5094814;28;20025;-80
2020/12/26 10:40:18;;;;;;;10.73;6.55;;;3.80;99.90;;;;;;5094685;28;20020;-80
2020/12/26 10:42:44;;;;;;;10.45;6.35;;;4.00;99.90;;;;;;5076432;28;20024;-80
2020/12/26 10:45:09;;;;;;;13.43;7.07;;;3.90;99.90;;;;;;5094592;28;20027;-80
2020/12/26 10:47:35;;;;;;;11.32;6.70;;;4.00;99.90;;;;;;5094548;28;20032;-80
2020/12/26 10:50:01;;;;;;;10.40;7.07;;;4.20;99.90;;;;;;5094535;28;20056;-80
2020/12/26 10:52:27;;;;;;;12.20;6.40;;;4.60;99.90;;;;;;5094757;28;20098;-80
2020/12/26 10:54:52;;;;;;;10.80;5.78;;;4.80;99.90;;;;;;5094504;28;20020;-80
2020/12/26 10:57:18;;;;;;;19.40;6.57;;;5.40;99.90;;;;;;5076163;28;20047;-80
2020/12/26 10:59:44;;;;;;;10.70;6.57;;;5.50;99.90;;;;;;5094668;28;20077;-80
2020/12/26 11:02:09;;;;;;;13.05;7.15;;;5.20;99.90;;;;;;5094342;28;20024;-80
2020/12/26 11:04:35;;;;;;;12.32;7.38;;;5.30;99.90;;;;;;5094567;28;20020;-80
2020/12/26 11:07:01;;;;;;;12.13;7.53;;;5.20;99.90;;;;;;5076056;28;20067;-80
2020/12/26 11:09:26;;;;;;;10.95;6.60;;;5.40;99.90;;;;;;5093789;28;20356;-80
2020/12/26 11:11:53;;;;;;;12.30;8.40;;;5.30;99.90;;;;;;5093659;28;20048;-80
2020/12/26 11:14:19;;;;;;;9.73;5.90;;;5.10;99.90;;;;;;5075993;28;20383;-80
2020/12/26 11:16:49;;;;;;;19.20;9.23;;;5.00;99.90;;;;;;5094046;28;20068;-80
2020/12/26 11:19:16;;;;;;;10.20;5.90;;;5.00;99.90;;;;;;5075905;28;20020;-80
2020/12/26 11:21:42;;;;;;;14.35;7.78;;;5.00;99.90;;;;;;5075934;28;20024;-80
2020/12/26 11:24:09;;;;;;;9.27;6.75;;;4.90;99.90;;;;;;5094037;28;20055;-80
2020/12/26 11:26:35;;;;;;;8.40;6.00;;;5.00;99.90;;;;;;5093956;28;20028;-80
2020/12/26 11:29:01;;;;;;;9.75;5.97;;;5.30;99.90;;;;;;5075760;28;20397;-80
2020/12/26 11:31:27;;;;;;;9.15;5.95;;;5.50;99.90;;;;;;5075758;28;20505;-80
2020/12/26 11:33:52;;;;;;;12.50;7.40;;;5.50;99.90;;;;;;5093774;28;20085;-80
2020/12/26 11:36:22;;;;;;;10.75;6.50;;;5.40;99.90;;;;;;5094500;28;20060;-80
2020/12/26 11:38:49;;;;;;;8.90;6.15;;;5.40;99.90;;;;;;5076156;28;20028;-80
2020/12/26 11:41:26;;;;;;;10.20;6.40;;;5.50;99.90;;;;;;5075551;28;20090;-80
2020/12/26 11:43:56;;;;;;;11.90;6.30;;;5.60;99.90;;;;;;5075304;28;20540;-80
2020/12/26 11:46:22;;;;;;;8.15;5.75;;;6.00;99.90;;;;;;5093740;28;20103;-80
2020/12/26 11:48:48;;;;;;;11.88;7.65;;;5.80;99.90;;;;;;5093632;28;20106;-80
2020/12/26 11:51:14;;;;;;;14.48;6.40;;;5.90;99.90;;;;;;5093594;28;20435;-80
2020/12/26 11:53:40;;;;;;;7.10;4.68;;;5.90;99.90;;;;;;5075532;28;20020;-80
2020/12/26 11:56:14;;;;;;;11.00;5.53;;;6.10;99.90;;;;;;5075459;28;20059;-79
2020/12/26 11:58:41;;;;;;;7.35;4.60;;;6.00;99.90;;;;;;5093578;28;20051;-80
2020/12/26 12:01:08;;;;;;;7.68;4.32;;;6.40;99.90;;;;;;5075344;28;20502;-80
2020/12/26 12:03:35;;;;;;;10.43;4.30;;;6.70;99.90;;;;;;5094106;28;20363;-80
2020/12/26 12:06:01;;;;;;;10.43;5.25;;;7.00;99.90;;;;;;5075389;28;20028;-80
2020/12/26 12:08:27;;;;;;;7.95;4.53;;;7.00;99.90;;;;;;5075352;28;20050;-80
2020/12/26 12:10:52;;;;;;;10.13;4.97;;;6.50;99.90;;;;;;5093237;28;20126;-80
2020/12/26 12:13:18;;;;;;;9.60;4.78;;;6.20;99.90;;;;;;5093624;28;20101;-80
2020/12/26 12:15:44;;;;;;;7.65;4.68;;;6.00;99.90;;;;;;5075238;28;20064;-80
2020/12/26 12:18:10;;;;;;;12.27;4.93;;;5.90;99.90;;;;;;5093439;28;20052;-80
2020/12/26 12:20:36;;;;;;;9.00;4.40;;;5.60;99.90;;;;;;5093325;28;20024;-80
2020/12/26 12:23:03;;;;;;;9.50;5.63;;;5.80;99.90;;;;;;5096805;28;20066;-80
2020/12/26 12:25:29;;;;;;;8.55;4.70;;;6.00;99.90;;;;;;5079168;28;20471;-80
2020/12/26 12:27:56;;;;;;;9.20;4.35;;;6.10;99.90;;;;;;5079136;28;20031;-80
2020/12/26 12:30:26;;;;;;;8.70;3.67;;;6.00;99.90;;;;;;5078802;28;20024;-80
2020/12/26 12:32:53;;;;;;;9.73;4.40;;;5.80;99.90;;;;;;5078934;28;20020;-80
2020/12/26 12:35:19;;;;;;;4.78;3.65;;;6.50;99.90;;;;;;5097175;28;20383;-80
2020/12/26 12:37:49;;;;;;;7.85;3.80;;;6.40;99.90;;;;;;5097135;28;20071;-80
2020/12/26 12:40:16;;;;;;;7.07;4.07;;;6.80;99.90;;;;;;5097048;28;20012;-80
2020/12/26 12:42:42;;;;;;;8.20;3.90;;;7.80;99.90;;;;;;5097012;28;20020;-80
2020/12/26 12:45:07;;;;;;;8.10;3.78;;;7.80;99.90;;;;;;5078735;28;20024;-80
2020/12/26 12:47:33;;;;;;;8.07;4.25;;;6.60;99.90;;;;;;5097175;28;20024;-80
2020/12/26 12:49:59;;;;;;;9.45;3.85;;;6.50;99.90;;;;;;5096900;28;20027;-80
2020/12/26 12:52:25;;;;;;;10.30;4.30;;;6.60;99.90;;;;;;5096804;28;20024;-80